Impacts METAR Board
IDs:

KSTL - St Louis/Lambert Int, MO, US

Updated at: 1000 UTC 22 Apr 2018
Potential Impact None Slight Moderate High
Time 21/22Z 21/23Z 22/00Z 22/01Z 22/02Z 22/03Z 22/04Z 22/05Z 22/06Z 22/07Z 22/08Z 22/09Z 22/10Z
Temp65 65 63 62 60 60 59 58 57 56 55 55 54
Dewpt31 32 32 33 34 33 32 33 33 33 32 31 32
Altim30.20 30.20 30.21 30.20 30.21 30.21 30.20 30.19 30.18 30.16 30.16 30.16 30.16
VIS10 10 10 10 10 10 10 10 10 10 10 10 10
CIG150 180 180 200 150 120 130 100 110 100 90 100 100
CoverBKNBKNOVCOVCOVCOVCOVCOVCOVCOVCOVCOVCOVC
FltCatVFRVFRVFRVFRVFRVFRVFRVFRVFRVFRVFRVFRVFR
WX--------------------------
WDir8010080907080607090808090100
WSpd11 12 11 10 9 9 10 9 11 13 11 9 8
WGst-- -- -- -- -- -- -- -- -- -- -- -- --
Raw hourly METARs
KSTL 212151Z 08011KT 10SM BKN150 BKN250 18/M01 A3020 RMK AO2 SLP226 T01831006
KSTL 212251Z 10012KT 10SM SCT130 BKN180 18/00 A3020 RMK AO2 SLP228 T01830000
KSTL 212351Z 08011KT 10SM SCT130 OVC180 17/00 A3021 RMK AO2 SLP229 VIRGA S T01720000 10194 20167 51006
KSTL 220051Z 09010KT 10SM SCT140 OVC200 17/01 A3020 RMK AO2 SLP225 T01670006
KSTL 220151Z 07009KT 10SM OVC150 16/01 A3021 RMK AO2 PRESRR SLP230 T01560011
KSTL 220251Z 08009KT 10SM OVC120 16/01 A3021 RMK AO2 SLP229 T01560006 53002
KSTL 220351Z 06010KT 10SM OVC130 15/00 A3020 RMK AO2 SLP224 T01500000
KSTL 220451Z 07009KT 10SM OVC100 14/01 A3019 RMK AO2 SLP218 T01440006
KSTL 220551Z 09011KT 10SM BKN110 OVC200 14/01 A3018 RMK AO2 SLP215 T01390006 10172 20139 401940044 56012
KSTL 220651Z 08013KT 10SM OVC100 13/01 A3016 RMK AO2 SLP210 T01330006
KSTL 220751Z 08011KT 10SM OVC090 13/00 A3016 RMK AO2 SLP209 T01280000
KSTL 220851Z 09009KT 10SM OVC100 13/M01 A3016 RMK AO2 SLP209 T01281006 55006
KSTL 220951Z 10008KT 10SM OVC100 12/00 A3016 RMK AO2 SLP210 T01220000



Page loaded:  10:50 UTC  |   03:50 AM Pacific  |   04:50 AM Mountain  |   05:50 AM Central  |   06:50 AM Eastern

 

ADVISORIES

FORECASTS

FORECASTS

OBSERVATIONS

USER TOOLS

ABOUT US